Jepson Prairie Reserve, California Weather observations

Data are for 10 minute period ending at time listed.
 Day   Time   Solar   Ave.   Ave.  Ave.  Vector  Max.   Baro.   Total    
  of    of     Rad.   Air    Rel.  Wind   Wind   Wind  Press.  Precip.   
Year   Day            Temp.  Hum.  Speed  Dir.   Gust                    
2017   (PST)  Kw/m2    F      %     mph   deg.    mph    mb.     in.     
-------------------------------------------------------------------------
  23    4:10   0.00   48.2    90    1.4    58     2.4   1005.4    0.00 
  23    4:20   0.00   47.4    92    1.6    60     2.3   1005.4    0.00 
  23    4:30   0.00   47.1    93    1.0     6     1.5   1005.4    0.00 
  23    4:40   0.00   47.1    94    2.5   275     8.0   1005.8    0.00 
  23    4:50   0.00   47.5    91   10.3   238    20.7   1006.1    0.19 
  23    5:00   0.00   47.0    91    5.8   183    10.3   1005.8    0.03 
  23    5:10   0.00   46.9    92    5.0   164     6.3   1005.8    0.00 
  23    5:20   0.00   47.3    94    7.1   147     8.2   1005.8    0.00 
  23    5:30   0.00   47.6    96    6.1   121     7.5   1005.8    0.00 
  23    5:40   0.00   47.4    97    4.3   106     5.5   1006.1    0.00 
  23    5:50   0.00   47.1    97    2.9    94     3.7   1006.1    0.00 
  23    6:00   0.00   46.9    96    4.9    95     6.1   1006.1    0.00 
  23    6:10   0.00   46.3    97    5.5   104     5.9   1006.4    0.00 
  23    6:20   0.00   45.7    97    6.2   108     7.3   1006.4    0.00 
  23    6:30   0.00   45.4    97    6.9   107     7.5   1006.4    0.00 
  23    6:40   0.00   45.6    97    6.2   115     6.9   1006.8    0.00 
  23    6:50   0.00   45.8    98    6.4   129     7.5   1006.8    0.00 
  23    7:00   0.00   46.7    98    6.8   129     7.5   1006.8    0.00 
  23    7:10   0.00   46.5    99    5.2   133     5.8   1007.1    0.00 
  23    7:20   0.00   46.5    99    5.9   141     6.7   1007.1    0.00 
  23    7:30   0.00   46.6    99    5.4   159     6.9   1007.5    0.00 
  23    7:40   0.01   47.1    99    5.2   168     6.1   1007.5    0.00 
  23    7:50   0.03   46.9    98    5.0   170     6.1   1007.5    0.00 
  23    8:00   0.04   47.0    98    4.5   173     5.4   1007.8    0.00 
  23    8:10   0.05   47.1    98    4.2   161     4.6   1007.8    0.00 
  23    8:20   0.07   47.1    98    4.7   170     5.6   1007.8    0.00 
  23    8:30   0.07   47.4    98    5.6   172     7.0   1008.1    0.00 
  23    8:40   0.08   47.7    97    5.6   172     6.6   1008.1    0.00 
  23    8:50   0.08   48.4    96    6.6   175     7.3   1008.5    0.00 
  23    9:00   0.20   49.6    96    5.6   168     6.6   1008.5    0.00 
  23    9:10   0.27   51.4    91    4.3   151     5.6   1008.5    0.00 
  23    9:20   0.33   52.0    90    4.7   110     6.1   1008.5    0.00 
  23    9:30   0.39   52.7    90    5.0   117     9.1   1008.5    0.00 
  23    9:40   0.24   53.7    87    4.9   147     6.9   1008.8    0.00 
  23    9:50   0.29   56.8    85    4.8   156     7.3   1008.8    0.00 
  23   10:00   0.14   55.6    85    6.2   174     8.2   1009.1    0.00 
  23   10:10   0.11   54.6    85    7.4   174     9.5   1009.1    0.00 
  23   10:20   0.20   54.6    86    7.5   166     9.8   1009.1    0.00 
  23   10:30   0.38   54.7    85    8.0   137    10.4   1009.1    0.00 
  23   10:40   0.32   54.1    85    7.4   150    11.2   1009.1    0.00 
  23   10:50   0.41   53.4    83    8.7   155    11.2   1009.1    0.00 
  23   11:00   0.59   54.0    81    7.3   145    11.1   1008.8    0.00 
  23   11:10   0.51   54.5    80    7.6   155    11.3   1008.8    0.00 
  23   11:20   0.44   55.0    77    6.9   181     9.7   1008.8    0.00 
  23   11:30   0.25   54.6    76    6.9   184    10.2   1008.8    0.00 
  23   11:40   0.41   54.4    76    6.4   193     9.7   1008.8    0.00 
  23   11:50   0.38   55.3    73    7.7   192    10.9   1008.8    0.00 
  23   12:00   0.25   54.6    75    5.7   195     9.4   1008.5    0.00 
  23   12:10   0.12   54.4    74    4.8   187     7.0   1008.5    0.00 
  23   12:20   0.14   54.2    77    6.8   186    11.0   1008.5    0.00 
  23   12:30   0.20   54.2    77    8.5   191    10.4   1008.5    0.00 
  23   12:40   0.29   54.3    77    8.1   209    11.3   1008.5    0.00 
  23   12:50   0.63   55.2    76    8.4   215    11.0   1008.5    0.00 
  23   13:00   0.55   55.5    75    7.9   200    11.6   1008.1    0.00 
  23   13:10   0.39   55.8    75    8.2   206    11.8   1008.1    0.00 
  23   13:20   0.16   54.9    74    8.6   206    11.8   1008.1    0.00 
  23   13:30   0.07   54.6    72    7.1   196     9.7   1008.1    0.00 
  23   13:40   0.07   53.9    75   10.3   230    16.9   1008.1    0.01 
  23   13:50   0.07   53.4    80   12.4   211    18.3   1007.8    0.00 
  23   14:00   0.10   52.8    80   10.8   186    14.3   1007.8    0.00 
  23   14:10   0.08   52.6    81   10.5   196    14.8   1007.8    0.00 
  23   14:20   0.18   52.8    81    9.1   215    12.3   1007.8    0.00 
  23   14:30   0.40   54.0    75   11.1   220    14.2   1007.8    0.00 
  23   14:40   0.37   54.6    66   11.3   215    14.2   1007.8    0.00 
  23   14:50   0.34   54.8    68   14.3   218    18.9   1007.5    0.00 
  23   15:00   0.32   54.7    71   12.8   217    16.6   1007.8    0.00 
  23   15:10   0.24   54.4    72   11.7   219    14.8   1007.8    0.00 
  23   15:20   0.21   54.0    69   12.4   214    14.4   1007.8    0.00 
  23   15:30   0.27   54.4    69   11.7   215    14.0   1007.8    0.00 
  23   15:40   0.19   54.3    69   12.1   216    15.5   1007.8    0.00 
  23   15:50   0.15   53.9    72   13.3   214    15.5   1007.8    0.00 
  23   16:00   0.19   54.1    72   12.1   210    14.7   1007.8    0.00 
  23   16:10   0.07   53.8    72   10.7   203    13.4   1007.8    0.00 
  23   16:20   0.06   53.0    74    9.6   200    12.0   1008.1    0.00 
  23   16:30   0.04   52.8    77    7.7   198    10.2   1008.1    0.00 
  23   16:40   0.07   52.5    78    7.3   196     9.5   1008.1    0.00 
  23   16:50   0.05   52.6    78    8.2   190     9.9   1008.1    0.00 
  23   17:00   0.02   51.4    81    7.9   190     9.2   1008.1    0.00 
  23   17:10   0.01   50.4    84    7.3   196     8.1   1008.5    0.00 
  23   17:20   0.01   49.5    87    6.9   192     7.5   1008.5    0.00 
  23   17:30   0.00   49.1    89    6.9   199     7.4   1008.5    0.00 
  23   17:40   0.00   48.8    89    5.9   208     6.7   1008.5    0.00 
  23   17:50   0.00   48.0    90    6.5   198     7.2   1008.8    0.00 
  23   18:00   0.00   46.9    91    7.1   172     8.2   1008.8    0.00 
  23   18:10   0.00   47.5    91    5.1   159     6.4   1008.8    0.00 
  23   18:20   0.00   48.5    88    5.1   161     6.4   1008.8    0.00 
  23   18:30   0.00   48.3    87    4.5   154     6.2   1009.1    0.00 
  23   18:40   0.00   47.3    90    4.8   162     5.6   1009.1    0.00 
  23   18:50   0.00   46.6    92    6.0   138     7.4   1009.1    0.00 
  23   19:00   0.00   46.7    93    5.8   148     6.8   1009.5    0.00 
  23   19:10   0.00   47.3    94    6.4   151     7.8   1009.5    0.00 
  23   19:20   0.00   47.2    94    5.3   164     7.2   1009.5    0.00 
  23   19:30   0.00   45.1    92    6.3   174     8.1   1009.5    0.00 
  23   19:40   0.00   45.0    91    8.2   182    13.4   1009.5    0.00 
  23   19:50   0.00   44.9    90    7.2   192     8.4   1009.5    0.00 
  23   20:00   0.00   45.3    91    8.3   186    10.4   1009.5    0.00 
  23   20:10   0.00   46.2    89    9.3   182    10.6   1009.8    0.00 
  23   20:20   0.00   46.7    87    7.0   185     8.6   1009.8    0.00 
  23   20:30   0.00   46.8    86    5.7   195     6.6   1009.8    0.00 
  23   20:40   0.00   46.6    87    5.1   180     6.7   1009.8    0.00 
  23   20:50   0.00   46.7    88    2.0   118     3.9   1010.2    0.00 
  23   21:00   0.00   47.1    87    1.4    94     2.9   1010.2    0.00 
  23   21:10   0.00   47.4    86    1.1   133     3.1   1010.2    0.00 
  23   21:20   0.00   47.4    85    2.5   217     4.5   1010.2    0.00 
  23   21:30   0.00   46.7    89    4.2   234     5.1   1010.2    0.00 
  23   21:40   0.00   46.8    90    4.0   218     4.7   1010.2    0.00 
  23   21:50   0.00   46.5    91    3.5   212     4.5   1010.5    0.00 
  23   22:00   0.00   46.7    90    2.7   169     4.5   1010.5    0.00 
  23   22:10   0.00   46.8    88    2.3   201     3.5   1010.5    0.00 
  23   22:20   0.00   46.8    89    2.7   204     3.4   1010.5    0.00 
  23   22:30   0.00   46.8    89    2.1   103     4.2   1010.5    0.00 
  23   22:40   0.00   47.3    89    4.5    81     6.3   1010.5    0.00 
  23   22:50   0.00   47.9    86    6.2   114     9.6   1010.5    0.00 
  23   23:00   0.00   47.4    89    4.5   109     5.4   1010.8    0.00 
  23   23:10   0.00   47.0    91    3.6   108     4.7   1010.8    0.00 
  23   23:20   0.00   47.1    92    3.5    94     4.7   1010.8    0.00 
  23   23:30   0.00   46.9    92    5.3    90     7.0   1010.8    0.00 
  23   23:40   0.00   46.4    93    3.8    89     6.0   1010.8    0.00 
  23   23:50   0.00   46.1    94    4.1    82     5.8   1010.8    0.00 
  24    0:00   0.00   46.1    94    4.7    96     5.9   1010.8    0.00 
  24    0:10   0.00   46.0    94    4.6    93     5.7   1010.8    0.00 
  24    0:20   0.00   45.4    94    3.7   127     5.1   1010.8    0.00 
  24    0:30   0.00   44.5    95    2.6   136     3.1   1010.8    0.00 
  24    0:40   0.00   44.8    96    2.2   109     2.5   1010.8    0.00 
  24    0:50   0.00   44.9    96    1.0   144     2.4   1011.2    0.00 
  24    1:00   0.00   45.5    96    1.3    16     2.2   1011.2    0.00 
  24    1:10   0.00   45.9    96    3.0    26     4.4   1010.8    0.00 
  24    1:20   0.00   45.9    96    4.2    41     5.0   1010.8    0.00 
  24    1:30   0.00   45.8    96    4.4    69     5.6   1011.2    0.00 
  24    1:40   0.00   45.9    97    3.1    80     4.4   1011.2    0.00 
  24    1:50   0.00   46.0    96    4.3    61     5.8   1011.5    0.00 
  24    2:00   0.00   45.9    97    5.0    82     6.2   1011.5    0.00 
  24    2:10   0.00   46.1    97    5.5    87     6.4   1011.5    0.00 
  24    2:20   0.00   46.2    96    4.9    78     6.1   1011.5    0.00 
  24    2:30   0.00   46.2    96    3.5    60     4.8   1011.5    0.00 
  24    2:40   0.00   46.0    97    3.7    52     4.9   1011.9    0.00 
  24    2:50   0.00   45.9    97    3.9    69     5.0   1011.9    0.00 
  24    3:00   0.00   45.6    97    5.1    74     6.3   1011.9    0.00 
  24    3:10   0.00   45.3    97    4.6    86     5.5   1011.9    0.00 
  24    3:20   0.00   44.9    97    4.0    69     4.9   1011.9    0.00 
  24    3:30   0.00   44.5    97    4.9    48     5.8   1011.9    0.00 
  24    3:40   0.00   44.9    97    5.1    45     5.9   1012.2    0.00 
  24    3:50   0.00   44.5    97    5.6    48     6.6   1012.2    0.00 
  24    4:00   0.00   44.3    97    5.4    53     6.1   1012.2    0.00 

Return to Jepson Prairie Reserve graphs page.


Western Regional Climate Center,wrcc@dri.edu